Time;durP1;ratioP1;P1;durP2;ratioP2;P2;SDS_P1;SDS_P2;PMS_P1;PMS_P2;Temp;Humidity;BMP_temperature;BMP_pressure;BME280_temperature;BME280_humidity;BME280_pressure;Samples;Min_cycle;Max_cycle;Signal;HPM_P1;HPM_P2
2022/04/09 00:01:06;;;;;;;44.80;21.40;;;;;;;;;;6337972;28;20430;-65
2022/04/09 00:04:07;;;;;;;39.35;19.05;;;;;;;;;;6334824;28;20082;-68
2022/04/09 00:07:08;;;;;;;30.10;16.95;;;;;;;;;;6330039;28;20112;-68
2022/04/09 00:10:11;;;;;;;31.45;17.70;;;;;;;;;;6331509;28;20054;-66
2022/04/09 00:13:11;;;;;;;34.80;18.13;;;;;;;;;;6331116;28;20048;-66
2022/04/09 00:16:12;;;;;;;34.00;17.30;;;;;;;;;;6324751;28;20143;-66
2022/04/09 00:19:13;;;;;;;29.50;16.38;;;;;;;;;;6322946;28;20052;-67
2022/04/09 00:22:14;;;;;;;31.35;17.38;;;;;;;;;;6335973;28;20811;-63
2022/04/09 00:25:21;;;;;;;32.83;16.95;;;;;;;;;;6331112;28;20043;-68
2022/04/09 00:28:22;;;;;;;34.65;18.25;;;;;;;;;;6324351;28;20040;-63
2022/04/09 00:31:22;;;;;;;35.90;18.70;;;;;;;;;;6328818;28;20509;-62
2022/04/09 00:34:23;;;;;;;39.53;20.30;;;;;;;;;;6334920;28;20051;-69
2022/04/09 00:37:24;;;;;;;42.50;19.17;;;;;;;;;;6329462;28;20048;-68
2022/04/09 00:40:26;;;;;;;41.50;18.73;;;;;;;;;;6326817;28;20489;-68
2022/04/09 00:43:26;;;;;;;37.22;17.67;;;;;;;;;;6333814;28;20039;-61
2022/04/09 00:46:27;;;;;;;38.05;18.00;;;;;;;;;;6324568;28;20052;-65
2022/04/09 00:49:28;;;;;;;39.45;18.63;;;;;;;;;;6334509;28;20044;-67
2022/04/09 00:52:32;;;;;;;36.23;17.03;;;;;;;;;;6330191;28;20058;-64
2022/04/09 00:58:55;;;;;;;33.03;16.58;;;;;;;;;;6330135;28;20067;-64
2022/04/09 01:01:56;;;;;;;32.60;16.17;;;;;;;;;;6331305;28;20044;-66
2022/04/09 01:04:58;;;;;;;33.58;16.33;;;;;;;;;;6331110;28;20315;-62
2022/04/09 01:07:58;;;;;;;38.90;17.42;;;;;;;;;;6327656;28;20134;-62
2022/04/09 01:10:59;;;;;;;35.88;17.00;;;;;;;;;;6323237;28;20048;-62
2022/04/09 01:14:00;;;;;;;39.70;17.80;;;;;;;;;;6327423;28;20054;-62
2022/04/09 01:17:01;;;;;;;36.33;17.10;;;;;;;;;;6322557;28;20054;-66
2022/04/09 01:20:18;;;;;;;35.67;15.68;;;;;;;;;;6335025;28;20367;-63
2022/04/09 01:23:18;;;;;;;29.38;15.38;;;;;;;;;;6334388;28;20479;-65
2022/04/09 01:26:20;;;;;;;39.42;20.08;;;;;;;;;;6327903;28;20070;-65
2022/04/09 01:29:20;;;;;;;42.03;20.25;;;;;;;;;;6321525;28;20039;-63
2022/04/09 01:32:21;;;;;;;35.28;18.05;;;;;;;;;;6324362;28;20135;-66
2022/04/09 01:35:21;;;;;;;37.00;18.08;;;;;;;;;;6319092;28;20061;-66
2022/04/09 01:38:22;;;;;;;35.85;17.23;;;;;;;;;;6327823;28;20048;-67
2022/04/09 01:41:25;;;;;;;32.40;16.08;;;;;;;;;;6329293;28;20048;-65
2022/04/09 01:44:25;;;;;;;29.63;15.20;;;;;;;;;;6320445;28;20051;-65
2022/04/09 01:47:26;;;;;;;41.45;18.60;;;;;;;;;;6335045;28;20047;-66
2022/04/09 01:50:28;;;;;;;37.00;18.67;;;;;;;;;;6334704;28;20046;-63
2022/04/09 01:53:29;;;;;;;46.35;21.88;;;;;;;;;;6326160;28;20097;-66
2022/04/09 01:56:29;;;;;;;34.15;18.63;;;;;;;;;;6329174;28;20142;-62
2022/04/09 01:59:31;;;;;;;35.25;17.92;;;;;;;;;;6333755;28;20047;-67
2022/04/09 02:02:32;;;;;;;29.67;17.00;;;;;;;;;;6337784;28;20052;-63
2022/04/09 02:05:34;;;;;;;33.13;17.48;;;;;;;;;;6338253;28;20044;-67
2022/04/09 02:08:35;;;;;;;;;;;;;;;;;;6331625;28;20143;-61
2022/04/09 02:11:36;;;;;;;36.53;20.48;;;;;;;;;;6325581;28;20037;-63
2022/04/09 02:14:36;;;;;;;42.83;22.80;;;;;;;;;;6333775;28;20418;-62
2022/04/09 02:17:38;;;;;;;46.70;26.30;;;;;;;;;;6333558;28;20086;-66
2022/04/09 02:20:39;;;;;;;54.08;29.30;;;;;;;;;;6331873;28;20677;-62
2022/04/09 02:23:40;;;;;;;56.97;29.25;;;;;;;;;;6334401;28;20462;-64
2022/04/09 02:26:40;;;;;;;52.35;28.25;;;;;;;;;;6339006;28;20191;-64
2022/04/09 02:29:41;;;;;;;48.38;27.13;;;;;;;;;;6329117;28;21015;-62
2022/04/09 02:32:48;;;;;;;50.08;24.85;;;;;;;;;;6332292;27;20044;-67
2022/04/09 02:35:49;;;;;;;47.88;23.05;;;;;;;;;;6337296;28;20140;-63
2022/04/09 02:38:50;;;;;;;44.95;22.70;;;;;;;;;;6335251;28;20448;-62
2022/04/09 02:41:50;;;;;;;48.45;22.52;;;;;;;;;;6329166;28;20052;-63
2022/04/09 02:44:51;;;;;;;42.08;20.95;;;;;;;;;;6330177;28;20079;-63
2022/04/09 02:47:52;;;;;;;38.67;20.33;;;;;;;;;;6324116;28;20054;-64
2022/04/09 02:50:52;;;;;;;42.55;19.48;;;;;;;;;;6332162;28;20167;-66
2022/04/09 02:53:53;;;;;;;41.72;20.33;;;;;;;;;;6333130;28;20055;-61
2022/04/09 02:56:53;;;;;;;49.83;22.75;;;;;;;;;;6331454;28;20494;-66
2022/04/09 02:59:55;;;;;;;45.75;20.25;;;;;;;;;;6335923;28;20051;-65
2022/04/09 03:02:55;;;;;;;41.80;20.40;;;;;;;;;;6328024;28;20044;-64
2022/04/09 03:05:56;;;;;;;39.05;20.17;;;;;;;;;;6335840;28;20379;-66
2022/04/09 03:08:57;;;;;;;43.58;21.83;;;;;;;;;;6339461;28;20050;-63
2022/04/09 03:11:58;;;;;;;47.60;22.23;;;;;;;;;;6328294;28;20452;-68
2022/04/09 03:14:59;;;;;;;44.08;20.77;;;;;;;;;;6332412;28;20050;-64
2022/04/09 03:18:00;;;;;;;45.17;21.42;;;;;;;;;;6321811;28;20495;-62
2022/04/09 03:21:00;;;;;;;44.05;21.15;;;;;;;;;;6334709;28;20530;-63
2022/04/09 03:24:01;;;;;;;46.17;21.83;;;;;;;;;;6331591;28;20051;-66
2022/04/09 03:27:01;;;;;;;49.88;22.55;;;;;;;;;;6327907;28;20123;-67
2022/04/09 03:30:02;;;;;;;49.92;21.88;;;;;;;;;;6334685;28;20044;-66
2022/04/09 03:33:05;;;;;;;50.15;23.02;;;;;;;;;;6302769;28;20188;-64
2022/04/09 03:36:06;;;;;;;;;;;;;;;;;;6327685;28;20091;-64
2022/04/09 03:39:06;;;;;;;51.33;24.15;;;;;;;;;;6329598;28;19934;-65
2022/04/09 03:42:07;;;;;;;49.05;23.70;;;;;;;;;;6336516;28;20100;-63
2022/04/09 03:45:08;;;;;;;48.10;22.80;;;;;;;;;;6326411;28;20054;-63
2022/04/09 03:48:09;;;;;;;50.87;22.53;;;;;;;;;;6330534;28;20085;-66
2022/04/09 03:51:11;;;;;;;192.27;71.10;;;;;;;;;;6329797;28;20466;-63
2022/04/09 03:54:11;;;;;;;56.00;24.13;;;;;;;;;;6327428;28;20056;-65
2022/04/09 03:57:12;;;;;;;52.08;22.30;;;;;;;;;;6333414;28;20128;-67
2022/04/09 04:00:15;;;;;;;47.58;20.92;;;;;;;;;;6327982;28;20036;-64
2022/04/09 04:03:16;;;;;;;54.15;24.67;;;;;;;;;;6329393;28;20043;-64
2022/04/09 04:06:16;;;;;;;56.05;23.85;;;;;;;;;;6329821;28;20051;-66
2022/04/09 04:09:17;;;;;;;57.00;24.95;;;;;;;;;;6329398;28;20044;-62
2022/04/09 04:12:18;;;;;;;51.30;23.92;;;;;;;;;;6330745;28;20645;-67
2022/04/09 04:15:19;;;;;;;47.13;22.90;;;;;;;;;;6333367;28;20503;-63
2022/04/09 04:18:20;;;;;;;44.20;23.20;;;;;;;;;;6328447;28;20039;-65
2022/04/09 04:21:21;;;;;;;38.60;19.88;;;;;;;;;;6321117;28;20170;-63
2022/04/09 04:24:23;;;;;;;30.88;15.73;;;;;;;;;;6331723;28;20052;-65
2022/04/09 04:27:24;;;;;;;30.95;16.38;;;;;;;;;;6325870;28;20113;-63
2022/04/09 04:30:24;;;;;;;32.92;16.45;;;;;;;;;;6328208;28;20075;-66
2022/04/09 04:33:25;;;;;;;31.48;15.63;;;;;;;;;;6328152;27;20144;-63
2022/04/09 04:36:26;;;;;;;29.08;14.50;;;;;;;;;;6325658;28;20060;-63
2022/04/09 04:39:26;;;;;;;20.10;11.40;;;;;;;;;;6332394;28;20057;-65
2022/04/09 04:42:27;;;;;;;20.33;10.85;;;;;;;;;;6335652;28;20083;-65
2022/04/09 04:45:28;;;;;;;21.65;11.52;;;;;;;;;;6333524;28;20054;-63
2022/04/09 04:48:28;;;;;;;18.50;8.98;;;;;;;;;;6332387;28;20500;-66
2022/04/09 04:51:29;;;;;;;16.95;8.68;;;;;;;;;;6336617;28;20039;-65
2022/04/09 04:54:30;;;;;;;14.77;7.75;;;;;;;;;;6331496;28;20056;-66
2022/04/09 04:57:43;;;;;;;12.48;6.97;;;;;;;;;;6333563;28;20090;-63
2022/04/09 05:00:43;;;;;;;13.38;7.10;;;;;;;;;;6333961;27;20059;-64
2022/04/09 05:03:44;;;;;;;10.70;5.82;;;;;;;;;;6339284;28;20079;-66
2022/04/09 05:06:45;;;;;;;11.57;6.45;;;;;;;;;;6327678;28;20047;-64
2022/04/09 05:09:45;;;;;;;12.73;7.47;;;;;;;;;;6326754;28;20511;-65
2022/04/09 05:12:47;;;;;;;13.65;6.78;;;;;;;;;;6327243;28;20047;-66
2022/04/09 05:15:47;;;;;;;13.57;6.03;;;;;;;;;;6331770;28;20170;-66
2022/04/09 05:18:48;;;;;;;9.73;5.60;;;;;;;;;;6326387;28;20455;-65
2022/04/09 05:21:48;;;;;;;8.85;4.93;;;;;;;;;;6320561;28;20122;-64
2022/04/09 05:24:49;;;;;;;11.10;5.35;;;;;;;;;;6330962;28;20101;-65
2022/04/09 05:27:50;;;;;;;10.95;5.85;;;;;;;;;;6329506;28;20100;-67
2022/04/09 05:30:51;;;;;;;9.93;5.30;;;;;;;;;;6332363;28;20076;-66
2022/04/09 05:33:51;;;;;;;9.60;4.35;;;;;;;;;;6337993;28;20097;-65
2022/04/09 05:36:52;;;;;;;9.73;4.88;;;;;;;;;;6337181;28;20046;-67
2022/04/09 05:39:52;;;;;;;6.88;4.30;;;;;;;;;;6334937;28;20111;-62
2022/04/09 05:42:53;;;;;;;7.95;3.72;;;;;;;;;;6337042;28;20039;-62
2022/04/09 05:45:54;;;;;;;9.32;4.07;;;;;;;;;;6327894;28;20051;-64
2022/04/09 05:48:55;;;;;;;8.00;4.03;;;;;;;;;;6326386;28;20819;-67
2022/04/09 05:51:57;;;;;;;9.90;4.85;;;;;;;;;;6329792;28;20044;-62
2022/04/09 05:54:58;;;;;;;8.98;4.57;;;;;;;;;;6326608;28;20052;-63
2022/04/09 05:57:59;;;;;;;8.52;5.05;;;;;;;;;;6333153;28;20560;-62
2022/04/09 06:01:01;;;;;;;9.05;4.88;;;;;;;;;;6327272;28;20048;-63
2022/04/09 06:04:02;;;;;;;11.43;6.03;;;;;;;;;;6321919;28;20052;-62
2022/04/09 06:07:03;;;;;;;8.57;5.57;;;;;;;;;;6332952;28;20052;-63
2022/04/09 06:10:06;;;;;;;9.00;5.25;;;;;;;;;;6333560;28;20546;-61
2022/04/09 06:13:06;;;;;;;9.85;5.80;;;;;;;;;;6326558;28;20570;-63
2022/04/09 06:16:09;;;;;;;10.43;6.47;;;;;;;;;;6331519;28;20132;-62
2022/04/09 06:19:09;;;;;;;9.90;5.18;;;;;;;;;;6326106;28;20051;-64
2022/04/09 06:22:10;;;;;;;9.68;5.18;;;;;;;;;;6332172;28;20134;-66
2022/04/09 06:25:11;;;;;;;10.48;5.78;;;;;;;;;;6337188;28;20063;-62
2022/04/09 06:28:13;;;;;;;13.70;6.75;;;;;;;;;;6328808;28;20044;-65
2022/04/09 06:31:15;;;;;;;7.57;4.35;;;;;;;;;;6336620;28;20047;-63
2022/04/09 06:34:15;;;;;;;9.85;4.95;;;;;;;;;;6330511;28;20046;-62
2022/04/09 06:37:16;;;;;;;9.75;3.97;;;;;;;;;;6328664;28;20060;-62
2022/04/09 06:40:17;;;;;;;9.75;5.05;;;;;;;;;;6328583;28;20079;-61
2022/04/09 06:43:17;;;;;;;10.25;4.85;;;;;;;;;;6328662;28;20509;-62
2022/04/09 06:46:18;;;;;;;9.82;5.07;;;;;;;;;;6331321;28;20127;-63
2022/04/09 06:49:19;;;;;;;7.95;4.45;;;;;;;;;;6330138;28;20051;-63
2022/04/09 06:52:20;;;;;;;7.93;5.00;;;;;;;;;;6330996;28;20071;-62
2022/04/09 06:55:21;;;;;;;12.13;6.20;;;;;;;;;;6339456;28;20047;-63
2022/04/09 06:58:21;;;;;;;11.55;7.07;;;;;;;;;;6338118;27;20476;-63
2022/04/09 07:01:22;;;;;;;10.85;6.30;;;;;;;;;;6342417;28;20054;-62
2022/04/09 07:04:22;;;;;;;10.57;6.15;;;;;;;;;;6339231;28;20055;-63
2022/04/09 07:07:24;;;;;;;10.68;6.30;;;;;;;;;;6334731;27;20088;-62
2022/04/09 07:10:25;;;;;;;12.55;6.95;;;;;;;;;;6340833;27;20047;-62
2022/04/09 07:13:25;;;;;;;11.30;7.18;;;;;;;;;;6333190;27;20097;-62
2022/04/09 07:16:26;;;;;;;11.38;7.05;;;;;;;;;;6330992;27;20067;-64
2022/04/09 07:19:27;;;;;;;13.10;7.30;;;;;;;;;;6336147;27;20066;-65
2022/04/09 07:22:27;;;;;;;12.05;6.47;;;;;;;;;;6333417;27;20566;-63
2022/04/09 07:25:31;;;;;;;13.48;6.80;;;;;;;;;;6337073;27;20390;-63
2022/04/09 07:28:32;;;;;;;12.82;7.50;;;;;;;;;;6338263;27;20375;-63
2022/04/09 07:31:32;;;;;;;13.65;7.13;;;;;;;;;;6336083;27;20074;-65
2022/04/09 07:34:33;;;;;;;12.65;6.43;;;;;;;;;;6337070;27;20111;-66
2022/04/09 07:37:39;;;;;;;10.80;6.30;;;;;;;;;;6333302;27;20060;-63
2022/04/09 07:40:39;;;;;;;11.75;6.68;;;;;;;;;;6330646;28;20565;-64
2022/04/09 07:43:41;;;;;;;13.68;7.07;;;;;;;;;;6331487;28;20142;-64
2022/04/09 07:46:41;;;;;;;17.27;8.57;;;;;;;;;;6330063;27;20419;-65
2022/04/09 07:49:46;;;;;;;13.88;7.43;;;;;;;;;;6330465;28;20054;-65
2022/04/09 07:52:47;;;;;;;14.45;7.35;;;;;;;;;;6331059;28;20051;-63
2022/04/09 07:55:48;;;;;;;13.52;7.30;;;;;;;;;;6332131;28;20075;-64
2022/04/09 07:58:49;;;;;;;10.93;6.20;;;;;;;;;;6329820;28;20047;-64
2022/04/09 08:01:49;;;;;;;12.40;6.85;;;;;;;;;;6308180;28;20133;-63
2022/04/09 08:04:50;;;;;;;14.95;7.40;;;;;;;;;;6332138;27;20048;-63
2022/04/09 08:07:52;;;;;;;16.08;7.28;;;;;;;;;;6327685;28;20134;-63
2022/04/09 08:10:52;;;;;;;15.15;7.72;;;;;;;;;;6332093;28;20056;-64
2022/04/09 08:13:53;;;;;;;11.70;6.97;;;;;;;;;;6328847;28;20044;-64
2022/04/09 08:16:54;;;;;;;16.40;7.90;;;;;;;;;;6324760;27;20528;-64
2022/04/09 08:19:55;;;;;;;13.13;7.57;;;;;;;;;;6330701;28;20462;-63
2022/04/09 08:22:56;;;;;;;12.50;7.28;;;;;;;;;;6333132;28;20055;-63
2022/04/09 08:25:57;;;;;;;15.82;7.93;;;;;;;;;;6331914;28;20047;-64
2022/04/09 08:28:57;;;;;;;15.88;9.30;;;;;;;;;;6328998;27;20147;-63
2022/04/09 08:31:58;;;;;;;16.15;9.60;;;;;;;;;;6333797;28;20048;-63
2022/04/09 08:35:00;;;;;;;20.33;9.65;;;;;;;;;;6331615;28;20055;-62
2022/04/09 08:38:01;;;;;;;17.85;10.63;;;;;;;;;;6328613;28;20909;-67
2022/04/09 08:41:04;;;;;;;19.52;10.80;;;;;;;;;;6332348;28;20043;-64
2022/04/09 08:44:05;;;;;;;19.45;10.90;;;;;;;;;;6331307;28;20066;-64
2022/04/09 08:47:05;;;;;;;19.20;11.43;;;;;;;;;;6328579;28;20051;-64
2022/04/09 08:50:09;;;;;;;22.75;11.05;;;;;;;;;;6329383;28;20486;-66
2022/04/09 08:53:10;;;;;;;19.05;10.20;;;;;;;;;;6332533;28;20052;-66
2022/04/09 08:56:12;;;;;;;18.50;9.98;;;;;;;;;;6331737;28;20236;-66
2022/04/09 08:59:12;;;;;;;18.60;10.73;;;;;;;;;;6328422;28;20055;-66
2022/04/09 09:02:13;;;;;;;20.58;10.70;;;;;;;;;;6331552;28;20047;-62
2022/04/09 09:05:37;;;;;;;27.98;14.13;;;;;;;;;;6331042;28;20059;-67
2022/04/09 09:08:41;;;;;;;21.17;11.77;;;;;;;;;;6326476;28;20136;-64
2022/04/09 09:11:46;;;;;;;32.10;13.50;;;;;;;;;;6330599;28;20047;-63
2022/04/09 09:14:49;;;;;;;27.10;13.68;;;;;;;;;;6330682;28;20174;-63
2022/04/09 09:17:54;;;;;;;21.80;12.50;;;;;;;;;;6327151;28;20108;-64
2022/04/09 09:21:00;;;;;;;19.55;12.30;;;;;;;;;;6327776;28;20523;-62
2022/04/09 09:24:06;;;;;;;22.35;10.80;;;;;;;;;;6329148;28;20390;-66
2022/04/09 09:27:07;;;;;;;21.23;12.00;;;;;;;;;;6327490;28;20052;-66
2022/04/09 09:30:11;;;;;;;25.00;13.07;;;;;;;;;;6328845;28;20175;-64
2022/04/09 09:33:11;;;;;;;22.30;11.88;;;;;;;;;;6329986;28;20750;-64
2022/04/09 09:36:12;;;;;;;22.30;12.38;;;;;;;;;;6328469;28;20067;-67
2022/04/09 09:39:15;;;;;;;27.05;13.13;;;;;;;;;;6328121;28;20056;-66
2022/04/09 09:42:21;;;;;;;25.38;12.98;;;;;;;;;;6329784;28;20081;-63
2022/04/09 09:45:39;;;;;;;26.52;13.07;;;;;;;;;;6330187;28;20469;-65
2022/04/09 09:48:40;;;;;;;27.58;13.60;;;;;;;;;;6324508;28;20052;-62
2022/04/09 09:51:42;;;;;;;26.30;13.70;;;;;;;;;;6323174;28;20128;-66
2022/04/09 09:54:56;;;;;;;;;;;;;;;;;;6329062;28;20125;-66
2022/04/09 09:57:59;;;;;;;24.17;13.10;;;;;;;;;;6326874;28;19928;-63
2022/04/09 10:00:59;;;;;;;28.48;14.02;;;;;;;;;;6329285;28;20043;-66
2022/04/09 10:04:02;;;;;;;28.52;13.90;;;;;;;;;;6329555;28;20123;-62
2022/04/09 10:07:02;;;;;;;24.65;13.77;;;;;;;;;;6326937;28;20054;-63
2022/04/09 10:10:07;;;;;;;29.17;15.20;;;;;;;;;;6332342;28;20044;-63
2022/04/09 10:13:08;;;;;;;28.73;15.52;;;;;;;;;;6330261;28;20063;-63
2022/04/09 10:16:11;;;;;;;27.98;15.82;;;;;;;;;;6330016;28;20593;-64
2022/04/09 10:19:11;;;;;;;30.25;15.48;;;;;;;;;;6332479;28;20113;-63
2022/04/09 10:22:14;;;;;;;33.28;16.50;;;;;;;;;;6331166;28;20711;-63
2022/04/09 10:25:16;;;;;;;29.92;15.52;;;;;;;;;;6334756;28;20058;-63
2022/04/09 10:28:33;;;;;;;30.90;16.50;;;;;;;;;;6334218;28;20051;-66
2022/04/09 10:31:36;;;;;;;32.28;15.82;;;;;;;;;;6333280;28;20044;-65
2022/04/09 10:34:49;;;;;;;30.48;16.85;;;;;;;;;;6331472;28;20064;-64
2022/04/09 10:38:07;;;;;;;31.92;16.88;;;;;;;;;;6330995;28;20622;-62
2022/04/09 10:41:08;;;;;;;30.95;16.27;;;;;;;;;;6332618;28;20516;-66
2022/04/09 10:44:09;;;;;;;30.73;16.63;;;;;;;;;;6334018;28;20050;-65
2022/04/09 10:47:11;;;;;;;32.00;15.93;;;;;;;;;;6331085;28;20047;-62
2022/04/09 10:50:11;;;;;;;32.17;16.52;;;;;;;;;;6334356;28;20066;-66
2022/04/09 10:53:14;;;;;;;31.20;16.48;;;;;;;;;;6333368;28;20051;-66
2022/04/09 10:56:29;;;;;;;30.58;17.23;;;;;;;;;;6333241;28;20142;-62
2022/04/09 10:59:31;;;;;;;28.42;15.93;;;;;;;;;;6328598;28;20101;-63
2022/04/09 11:02:32;;;;;;;27.55;15.27;;;;;;;;;;6333002;28;20047;-64
2022/04/09 11:05:33;;;;;;;25.75;13.55;;;;;;;;;;6334208;28;20163;-64
2022/04/09 11:08:34;;;;;;;26.65;13.35;;;;;;;;;;6332704;28;20054;-62
2022/04/09 11:11:34;;;;;;;27.55;12.82;;;;;;;;;;6335625;28;20052;-63
2022/04/09 11:14:49;;;;;;;20.15;12.48;;;;;;;;;;6332815;28;20135;-64
2022/04/09 11:17:50;;;;;;;21.98;12.85;;;;;;;;;;6330186;28;20071;-62
2022/04/09 11:20:52;;;;;;;23.07;13.00;;;;;;;;;;6333355;28;20051;-61
2022/04/09 11:24:04;;;;;;;19.98;11.88;;;;;;;;;;6334911;28;20722;-61
2022/04/09 11:27:05;;;;;;;19.17;11.50;;;;;;;;;;6327445;28;20570;-64
2022/04/09 11:30:08;;;;;;;21.13;10.57;;;;;;;;;;6331238;28;20076;-64
2022/04/09 11:33:15;;;;;;;23.30;12.20;;;;;;;;;;6329704;27;20075;-63
2022/04/09 11:36:21;;;;;;;22.55;11.85;;;;;;;;;;6331541;28;20451;-65
2022/04/09 11:39:21;;;;;;;20.30;10.98;;;;;;;;;;6330471;28;20047;-65
2022/04/09 11:42:22;;;;;;;25.55;11.75;;;;;;;;;;6334478;28;20604;-62
2022/04/09 11:45:25;;;;;;;17.77;10.35;;;;;;;;;;6333448;28;20046;-64
2022/04/09 11:48:26;;;;;;;20.50;11.70;;;;;;;;;;6331867;28;20050;-65
2022/04/09 11:51:27;;;;;;;23.55;12.55;;;;;;;;;;6334046;28;20075;-64
2022/04/09 11:54:35;;;;;;;15.67;9.77;;;;;;;;;;6334693;27;20155;-63
2022/04/09 11:57:37;;;;;;;19.95;11.13;;;;;;;;;;6328351;27;20143;-63
2022/04/09 12:00:42;;;;;;;19.35;10.82;;;;;;;;;;6332015;28;20043;-65
2022/04/09 12:03:51;;;;;;;23.50;11.60;;;;;;;;;;6331929;28;21390;-66
2022/04/09 12:06:52;;;;;;;18.85;10.23;;;;;;;;;;6332109;28;20142;-64
2022/04/09 12:09:56;;;;;;;22.70;10.68;;;;;;;;;;6331785;28;20036;-65
2022/04/09 12:12:58;;;;;;;22.55;10.52;;;;;;;;;;6335426;28;20126;-62
2022/04/09 12:16:14;;;;;;;;;;;;;;;;;;6332855;28;20047;-66
2022/04/09 12:19:14;;;;;;;23.70;8.85;;;;;;;;;;6331719;28;20350;-68
2022/04/09 12:22:19;;;;;;;20.08;9.95;;;;;;;;;;6333193;28;20058;-62
2022/04/09 12:25:50;;;;;;;13.43;8.75;;;;;;;;;;6334775;28;20043;-67
2022/04/09 12:29:09;;;;;;;13.65;8.13;;;;;;;;;;6333007;28;20050;-63
2022/04/09 12:32:19;;;;;;;12.57;7.22;;;;;;;;;;6333181;28;20082;-63
2022/04/09 12:35:29;;;;;;;14.77;7.80;;;;;;;;;;6334662;28;20055;-64
2022/04/09 12:38:34;;;;;;;12.65;6.60;;;;;;;;;;6332371;28;20471;-61
2022/04/09 12:41:48;;;;;;;12.30;6.90;;;;;;;;;;6334404;28;20055;-65
2022/04/09 12:44:48;;;;;;;13.25;6.00;;;;;;;;;;6331008;28;20083;-66
2022/04/09 12:48:04;;;;;;;14.30;7.20;;;;;;;;;;6333136;28;20112;-64
2022/04/09 12:51:06;;;;;;;12.35;6.75;;;;;;;;;;6334534;28;20075;-66
2022/04/09 12:54:06;;;;;;;16.25;6.82;;;;;;;;;;6333017;28;20079;-66
2022/04/09 12:57:10;;;;;;;10.63;6.35;;;;;;;;;;6330622;28;20067;-63
2022/04/09 13:00:12;;;;;;;11.65;6.53;;;;;;;;;;6334378;28;20414;-64
2022/04/09 13:03:13;;;;;;;10.70;6.45;;;;;;;;;;6333567;28;20505;-67
2022/04/09 13:06:14;;;;;;;14.45;6.25;;;;;;;;;;6332965;28;20051;-61
2022/04/09 13:09:14;;;;;;;11.63;6.63;;;;;;;;;;6313127;28;20060;-64
2022/04/09 13:12:15;;;;;;;14.18;7.18;;;;;;;;;;6334044;28;20062;-62
2022/04/09 13:15:15;;;;;;;13.98;7.90;;;;;;;;;;6332979;28;20066;-65
2022/04/09 13:18:17;;;;;;;13.82;6.72;;;;;;;;;;6331962;28;20593;-60
2022/04/09 13:21:17;;;;;;;11.25;6.75;;;;;;;;;;6334062;28;20174;-61
2022/04/09 13:24:18;;;;;;;14.05;6.70;;;;;;;;;;6331082;28;20051;-66
2022/04/09 13:27:18;;;;;;;13.25;6.57;;;;;;;;;;6330341;28;20066;-61
2022/04/09 13:30:20;;;;;;;13.43;7.05;;;;;;;;;;6333544;28;20479;-65
2022/04/09 13:33:21;;;;;;;11.90;6.65;;;;;;;;;;6333446;28;20079;-67
2022/04/09 13:36:21;;;;;;;14.68;6.25;;;;;;;;;;6331720;28;20052;-61
2022/04/09 13:39:22;;;;;;;9.80;5.05;;;;;;;;;;6331229;28;20051;-67
2022/04/09 13:42:23;;;;;;;9.88;5.13;;;;;;;;;;6332508;28;20517;-72
2022/04/09 13:45:24;;;;;;;6.63;4.00;;;;;;;;;;6331844;28;20402;-66
2022/04/09 13:48:24;;;;;;;6.95;3.80;;;;;;;;;;6330627;28;20051;-62
2022/04/09 13:51:25;;;;;;;8.48;4.22;;;;;;;;;;6328712;28;20418;-64
2022/04/09 13:54:26;;;;;;;7.68;4.45;;;;;;;;;;6334352;28;20066;-66
2022/04/09 13:57:28;;;;;;;7.15;3.78;;;;;;;;;;6333373;28;20094;-62
2022/04/09 14:00:28;;;;;;;9.40;4.50;;;;;;;;;;6334889;28;20048;-63
2022/04/09 14:03:29;;;;;;;6.22;3.70;;;;;;;;;;6334976;28;20075;-67
2022/04/09 14:06:30;;;;;;;6.35;3.60;;;;;;;;;;6332197;28;20050;-64
2022/04/09 14:09:30;;;;;;;9.07;3.45;;;;;;;;;;6333969;28;20051;-65
2022/04/09 14:12:34;;;;;;;5.75;3.28;;;;;;;;;;6335200;27;20432;-64
2022/04/09 14:15:35;;;;;;;8.43;4.07;;;;;;;;;;6333096;27;20051;-63
2022/04/09 14:18:35;;;;;;;7.43;3.85;;;;;;;;;;6332844;28;20634;-65
2022/04/09 14:21:36;;;;;;;10.27;3.88;;;;;;;;;;6336541;28;20055;-65
2022/04/09 14:24:37;;;;;;;9.55;4.00;;;;;;;;;;6332728;28;20039;-64
2022/04/09 14:27:37;;;;;;;7.53;3.75;;;;;;;;;;6333871;28;20089;-65
2022/04/09 14:30:42;;;;;;;8.90;4.50;;;;;;;;;;6333907;28;20561;-65
2022/04/09 14:33:43;;;;;;;7.75;4.32;;;;;;;;;;6333747;28;20069;-67
2022/04/09 14:36:43;;;;;;;15.20;6.05;;;;;;;;;;6313042;28;20146;-63
2022/04/09 14:39:44;;;;;;;17.00;6.88;;;;;;;;;;6336073;28;20156;-66
2022/04/09 14:42:45;;;;;;;10.55;5.22;;;;;;;;;;6334852;28;20052;-66
2022/04/09 14:45:45;;;;;;;8.82;4.00;;;;;;;;;;6334546;28;20052;-66
2022/04/09 14:48:46;;;;;;;7.63;3.60;;;;;;;;;;6332704;28;20047;-67
2022/04/09 14:51:46;;;;;;;5.60;3.25;;;;;;;;;;6335390;28;20051;-67
2022/04/09 14:54:47;;;;;;;8.43;4.35;;;;;;;;;;6331207;28;20189;-66
2022/04/09 14:57:48;;;;;;;7.97;4.28;;;;;;;;;;6330665;28;20474;-63
2022/04/09 15:00:49;;;;;;;8.23;3.90;;;;;;;;;;6334439;28;20043;-66
2022/04/09 15:03:50;;;;;;;8.50;3.60;;;;;;;;;;6332689;28;20086;-64
2022/04/09 15:06:51;;;;;;;9.68;4.20;;;;;;;;;;6331196;28;20052;-65
2022/04/09 15:09:52;;;;;;;9.52;4.25;;;;;;;;;;6315339;28;20039;-61
2022/04/09 15:12:52;;;;;;;7.15;4.20;;;;;;;;;;6334037;28;20474;-61
2022/04/09 15:15:53;;;;;;;7.07;4.03;;;;;;;;;;6334053;28;20471;-63
2022/04/09 15:18:53;;;;;;;7.72;3.50;;;;;;;;;;6333789;28;20107;-64
2022/04/09 15:21:57;;;;;;;10.17;3.90;;;;;;;;;;6335947;28;20048;-63
2022/04/09 15:24:58;;;;;;;8.77;3.38;;;;;;;;;;6331783;28;20048;-64
2022/04/09 15:27:59;;;;;;;6.15;3.42;;;;;;;;;;6331492;28;20063;-64
2022/04/09 15:31:00;;;;;;;6.88;3.15;;;;;;;;;;6335050;28;20094;-64
2022/04/09 15:34:00;;;;;;;6.97;3.42;;;;;;;;;;6331089;28;20403;-63
2022/04/09 15:37:01;;;;;;;6.80;3.80;;;;;;;;;;6332302;28;20149;-62
2022/04/09 15:40:04;;;;;;;6.60;3.60;;;;;;;;;;6334028;28;20134;-64
2022/04/09 15:43:04;;;;;;;6.13;3.78;;;;;;;;;;6334595;28;20539;-62
2022/04/09 15:46:05;;;;;;;7.43;3.17;;;;;;;;;;6331538;28;20204;-62
2022/04/09 15:49:06;;;;;;;5.85;3.30;;;;;;;;;;6332215;28;20143;-64
2022/04/09 15:52:07;;;;;;;9.15;3.13;;;;;;;;;;6334742;28;20044;-62
2022/04/09 15:55:08;;;;;;;7.03;2.88;;;;;;;;;;6331507;28;20157;-64
2022/04/09 15:58:09;;;;;;;8.93;3.85;;;;;;;;;;6331826;27;20075;-62
2022/04/09 16:01:10;;;;;;;8.27;3.50;;;;;;;;;;6331401;28;20569;-60
2022/04/09 16:04:10;;;;;;;8.90;3.80;;;;;;;;;;6332404;28;20116;-64
2022/04/09 16:07:11;;;;;;;9.38;4.30;;;;;;;;;;6330873;28;20055;-63
2022/04/09 16:10:12;;;;;;;9.52;3.95;;;;;;;;;;6332975;28;20047;-64
2022/04/09 16:13:12;;;;;;;12.80;5.40;;;;;;;;;;6333560;27;20949;-64
2022/04/09 16:16:14;;;;;;;8.43;3.65;;;;;;;;;;6328217;28;21003;-60
2022/04/09 16:19:15;;;;;;;6.47;3.63;;;;;;;;;;6330462;28;20475;-62
2022/04/09 16:22:16;;;;;;;7.88;3.80;;;;;;;;;;6332282;28;20055;-62
2022/04/09 16:25:16;;;;;;;5.93;3.30;;;;;;;;;;6333065;28;20116;-64
2022/04/09 16:28:17;;;;;;;6.43;2.90;;;;;;;;;;6332099;28;20062;-66
2022/04/09 16:31:18;;;;;;;7.38;3.63;;;;;;;;;;6333641;28;20052;-61
2022/04/09 16:34:18;;;;;;;6.88;3.50;;;;;;;;;;6309094;28;20039;-64
2022/04/09 16:37:19;;;;;;;6.05;3.75;;;;;;;;;;6331304;28;20057;-63
2022/04/09 16:40:20;;;;;;;11.80;4.20;;;;;;;;;;6329677;28;20479;-64
2022/04/09 16:43:21;;;;;;;8.18;3.95;;;;;;;;;;6329735;28;20040;-63
2022/04/09 16:46:24;;;;;;;9.27;4.70;;;;;;;;;;6329883;28;20042;-65
2022/04/09 16:49:25;;;;;;;9.77;4.60;;;;;;;;;;6327264;28;20132;-63
2022/04/09 16:52:25;;;;;;;8.80;3.85;;;;;;;;;;6332298;28;20394;-65
2022/04/09 16:55:27;;;;;;;12.90;6.13;;;;;;;;;;6329567;28;20127;-64
2022/04/09 16:58:28;;;;;;;14.57;5.50;;;;;;;;;;6326058;28;21356;-63
2022/04/09 17:01:29;;;;;;;11.52;5.00;;;;;;;;;;6328157;28;20047;-62
2022/04/09 17:04:30;;;;;;;11.15;6.20;;;;;;;;;;6327025;28;20055;-64
2022/04/09 17:07:30;;;;;;;16.13;7.07;;;;;;;;;;6325292;28;20051;-64
2022/04/09 17:10:31;;;;;;;20.05;6.70;;;;;;;;;;6328369;28;20055;-64
2022/04/09 17:13:35;;;;;;;13.80;6.20;;;;;;;;;;6330246;28;20053;-64
2022/04/09 17:16:39;;;;;;;19.98;7.60;;;;;;;;;;6327272;28;20079;-64
2022/04/09 17:19:42;;;;;;;14.23;7.78;;;;;;;;;;6331905;28;20781;-66
2022/04/09 17:22:42;;;;;;;;;;;;;;;;;;6332610;28;20100;-64
2022/04/09 17:25:43;;;;;;;19.13;6.43;;;;;;;;;;6330495;28;20437;-67
2022/04/09 17:28:43;;;;;;;13.55;6.07;;;;;;;;;;6326807;28;20151;-64
2022/04/09 17:31:45;;;;;;;9.57;4.80;;;;;;;;;;6326213;28;20051;-61
2022/04/09 17:34:46;;;;;;;14.27;6.10;;;;;;;;;;6325710;28;20063;-63
2022/04/09 17:37:46;;;;;;;14.05;6.20;;;;;;;;;;6328200;28;20213;-65
2022/04/09 17:40:47;;;;;;;13.07;5.65;;;;;;;;;;6330362;28;20062;-67
2022/04/09 17:43:48;;;;;;;16.02;7.30;;;;;;;;;;6328637;28;20060;-63
2022/04/09 17:46:49;;;;;;;12.10;5.93;;;;;;;;;;6327179;28;20060;-63
2022/04/09 17:49:51;;;;;;;15.15;7.00;;;;;;;;;;6328438;28;20040;-62
2022/04/09 17:52:52;;;;;;;19.42;8.48;;;;;;;;;;6329348;28;20048;-64
2022/04/09 17:55:53;;;;;;;13.88;7.05;;;;;;;;;;6329314;28;20056;-65